sensor_id;sensor_type;location;lat;lon;timestamp;P1;durP1;ratioP1;P2;durP2;ratioP2
10967;SDS011;5536;49.602;10.980;2023-08-20T00:01:09;4.03;;;2.90;;
10967;SDS011;5536;49.602;10.980;2023-08-20T00:03:39;3.35;;;3.05;;
10967;SDS011;5536;49.602;10.980;2023-08-20T00:06:06;3.53;;;3.03;;
10967;SDS011;5536;49.602;10.980;2023-08-20T00:08:34;4.15;;;3.50;;
10967;SDS011;5536;49.602;10.980;2023-08-20T00:11:03;6.80;;;3.72;;
10967;SDS011;5536;49.602;10.980;2023-08-20T00:13:31;3.42;;;2.88;;
10967;SDS011;5536;49.602;10.980;2023-08-20T00:15:58;3.25;;;2.85;;
10967;SDS011;5536;49.602;10.980;2023-08-20T00:18:26;3.88;;;2.97;;
10967;SDS011;5536;49.602;10.980;2023-08-20T00:20:53;5.43;;;3.00;;
10967;SDS011;5536;49.602;10.980;2023-08-20T00:23:21;6.75;;;2.65;;
10967;SDS011;5536;49.602;10.980;2023-08-20T00:25:48;4.47;;;2.70;;
10967;SDS011;5536;49.602;10.980;2023-08-20T00:28:18;5.53;;;3.03;;
10967;SDS011;5536;49.602;10.980;2023-08-20T00:30:46;4.28;;;3.25;;
10967;SDS011;5536;49.602;10.980;2023-08-20T00:33:14;7.30;;;2.72;;
10967;SDS011;5536;49.602;10.980;2023-08-20T00:35:41;7.45;;;2.63;;
10967;SDS011;5536;49.602;10.980;2023-08-20T00:38:08;3.55;;;2.65;;
10967;SDS011;5536;49.602;10.980;2023-08-20T00:40:36;2.95;;;2.65;;
10967;SDS011;5536;49.602;10.980;2023-08-20T00:43:03;5.65;;;3.08;;
10967;SDS011;5536;49.602;10.980;2023-08-20T00:45:32;3.10;;;2.80;;
10967;SDS011;5536;49.602;10.980;2023-08-20T00:48:01;3.00;;;2.58;;
10967;SDS011;5536;49.602;10.980;2023-08-20T00:50:29;7.05;;;3.30;;
10967;SDS011;5536;49.602;10.980;2023-08-20T00:52:56;3.50;;;3.20;;
10967;SDS011;5536;49.602;10.980;2023-08-20T00:55:24;3.55;;;2.47;;
10967;SDS011;5536;49.602;10.980;2023-08-20T00:57:51;2.60;;;2.40;;
10967;SDS011;5536;49.602;10.980;2023-08-20T01:00:18;5.57;;;2.97;;
10967;SDS011;5536;49.602;10.980;2023-08-20T01:02:48;3.10;;;2.88;;
10967;SDS011;5536;49.602;10.980;2023-08-20T01:05:16;3.47;;;2.97;;
10967;SDS011;5536;49.602;10.980;2023-08-20T01:07:47;3.55;;;3.25;;
10967;SDS011;5536;49.602;10.980;2023-08-20T01:10:25;2.45;;;2.22;;
10967;SDS011;5536;49.602;10.980;2023-08-20T01:13:00;11.43;;;2.70;;
10967;SDS011;5536;49.602;10.980;2023-08-20T01:15:29;3.58;;;2.45;;
10967;SDS011;5536;49.602;10.980;2023-08-20T01:17:58;2.83;;;2.63;;
10967;SDS011;5536;49.602;10.980;2023-08-20T01:20:26;4.43;;;2.63;;
10967;SDS011;5536;49.602;10.980;2023-08-20T01:23:06;2.53;;;2.33;;
10967;SDS011;5536;49.602;10.980;2023-08-20T01:25:58;3.28;;;2.72;;
10967;SDS011;5536;49.602;10.980;2023-08-20T01:28:35;2.83;;;2.63;;
10967;SDS011;5536;49.602;10.980;2023-08-20T01:31:04;8.43;;;4.15;;
10967;SDS011;5536;49.602;10.980;2023-08-20T01:33:32;2.88;;;2.67;;
10967;SDS011;5536;49.602;10.980;2023-08-20T01:35:59;6.22;;;2.85;;
10967;SDS011;5536;49.602;10.980;2023-08-20T01:38:26;4.25;;;2.92;;
10967;SDS011;5536;49.602;10.980;2023-08-20T01:40:53;4.15;;;3.13;;
10967;SDS011;5536;49.602;10.980;2023-08-20T01:43:21;3.38;;;3.00;;
10967;SDS011;5536;49.602;10.980;2023-08-20T01:45:50;2.97;;;2.70;;
10967;SDS011;5536;49.602;10.980;2023-08-20T01:48:16;3.42;;;3.13;;
10967;SDS011;5536;49.602;10.980;2023-08-20T01:50:44;3.55;;;3.22;;
10967;SDS011;5536;49.602;10.980;2023-08-20T01:53:11;2.83;;;2.63;;
10967;SDS011;5536;49.602;10.980;2023-08-20T01:55:38;3.20;;;2.90;;
10967;SDS011;5536;49.602;10.980;2023-08-20T01:58:05;4.05;;;2.85;;
10967;SDS011;5536;49.602;10.980;2023-08-20T02:00:32;7.78;;;2.78;;
10967;SDS011;5536;49.602;10.980;2023-08-20T02:03:01;4.20;;;3.30;;
10967;SDS011;5536;49.602;10.980;2023-08-20T02:05:29;14.63;;;3.03;;
10967;SDS011;5536;49.602;10.980;2023-08-20T02:07:56;5.35;;;3.45;;
10967;SDS011;5536;49.602;10.980;2023-08-20T02:10:23;3.10;;;2.90;;
10967;SDS011;5536;49.602;10.980;2023-08-20T02:12:50;3.33;;;3.03;;
10967;SDS011;5536;49.602;10.980;2023-08-20T02:15:17;4.43;;;2.83;;
10967;SDS011;5536;49.602;10.980;2023-08-20T02:17:44;3.22;;;2.92;;
10967;SDS011;5536;49.602;10.980;2023-08-20T02:20:12;3.17;;;2.92;;
10967;SDS011;5536;49.602;10.980;2023-08-20T02:22:39;3.63;;;3.10;;
10967;SDS011;5536;49.602;10.980;2023-08-20T02:25:07;3.60;;;3.13;;
10967;SDS011;5536;49.602;10.980;2023-08-20T02:27:33;3.03;;;2.80;;
10967;SDS011;5536;49.602;10.980;2023-08-20T02:30:00;3.85;;;2.50;;
10967;SDS011;5536;49.602;10.980;2023-08-20T02:32:27;4.30;;;2.42;;
10967;SDS011;5536;49.602;10.980;2023-08-20T02:34:55;3.95;;;2.75;;
10967;SDS011;5536;49.602;10.980;2023-08-20T02:37:23;4.60;;;2.65;;
10967;SDS011;5536;49.602;10.980;2023-08-20T02:39:50;5.72;;;2.90;;
10967;SDS011;5536;49.602;10.980;2023-08-20T02:42:17;2.85;;;2.65;;
10967;SDS011;5536;49.602;10.980;2023-08-20T02:44:44;3.65;;;2.65;;
10967;SDS011;5536;49.602;10.980;2023-08-20T02:47:11;3.00;;;2.50;;
10967;SDS011;5536;49.602;10.980;2023-08-20T02:49:38;4.18;;;2.45;;
10967;SDS011;5536;49.602;10.980;2023-08-20T02:52:05;2.90;;;2.70;;
10967;SDS011;5536;49.602;10.980;2023-08-20T02:54:33;4.13;;;2.78;;
10967;SDS011;5536;49.602;10.980;2023-08-20T02:57:00;2.97;;;2.70;;
10967;SDS011;5536;49.602;10.980;2023-08-20T02:59:27;3.92;;;3.10;;
10967;SDS011;5536;49.602;10.980;2023-08-20T03:01:54;3.38;;;2.78;;
10967;SDS011;5536;49.602;10.980;2023-08-20T03:04:21;3.63;;;3.20;;
10967;SDS011;5536;49.602;10.980;2023-08-20T03:06:49;6.60;;;3.53;;
10967;SDS011;5536;49.602;10.980;2023-08-20T03:09:16;3.50;;;3.20;;
10967;SDS011;5536;49.602;10.980;2023-08-20T03:11:44;2.75;;;2.55;;
10967;SDS011;5536;49.602;10.980;2023-08-20T03:14:11;3.78;;;3.30;;
10967;SDS011;5536;49.602;10.980;2023-08-20T03:16:38;2.70;;;2.50;;
10967;SDS011;5536;49.602;10.980;2023-08-20T03:19:05;3.28;;;2.97;;
10967;SDS011;5536;49.602;10.980;2023-08-20T03:21:32;2.60;;;2.40;;
10967;SDS011;5536;49.602;10.980;2023-08-20T03:23:59;3.25;;;2.97;;
10967;SDS011;5536;49.602;10.980;2023-08-20T03:26:26;3.72;;;3.33;;
10967;SDS011;5536;49.602;10.980;2023-08-20T03:28:55;6.57;;;3.00;;
10967;SDS011;5536;49.602;10.980;2023-08-20T03:31:23;2.95;;;2.53;;
10967;SDS011;5536;49.602;10.980;2023-08-20T03:33:50;2.72;;;2.53;;
10967;SDS011;5536;49.602;10.980;2023-08-20T03:36:17;3.25;;;2.92;;
10967;SDS011;5536;49.602;10.980;2023-08-20T03:38:44;3.15;;;2.88;;
10967;SDS011;5536;49.602;10.980;2023-08-20T03:41:11;8.20;;;2.80;;
10967;SDS011;5536;49.602;10.980;2023-08-20T03:43:38;4.07;;;3.67;;
10967;SDS011;5536;49.602;10.980;2023-08-20T03:46:06;5.88;;;3.20;;
10967;SDS011;5536;49.602;10.980;2023-08-20T03:48:33;3.00;;;2.65;;
10967;SDS011;5536;49.602;10.980;2023-08-20T03:51:01;2.63;;;2.42;;
10967;SDS011;5536;49.602;10.980;2023-08-20T03:53:28;2.90;;;2.47;;
10967;SDS011;5536;49.602;10.980;2023-08-20T03:55:55;2.70;;;2.50;;
10967;SDS011;5536;49.602;10.980;2023-08-20T03:58:22;7.53;;;2.53;;
10967;SDS011;5536;49.602;10.980;2023-08-20T04:00:49;7.38;;;2.90;;
10967;SDS011;5536;49.602;10.980;2023-08-20T04:03:18;4.00;;;2.92;;
10967;SDS011;5536;49.602;10.980;2023-08-20T04:05:45;4.18;;;3.00;;
10967;SDS011;5536;49.602;10.980;2023-08-20T04:08:12;11.82;;;3.25;;
10967;SDS011;5536;49.602;10.980;2023-08-20T04:10:42;2.72;;;2.55;;
10967;SDS011;5536;49.602;10.980;2023-08-20T04:13:10;5.78;;;3.17;;
10967;SDS011;5536;49.602;10.980;2023-08-20T04:15:39;3.80;;;3.17;;
10967;SDS011;5536;49.602;10.980;2023-08-20T04:18:06;6.53;;;3.60;;
10967;SDS011;5536;49.602;10.980;2023-08-20T04:20:34;4.53;;;2.60;;
10967;SDS011;5536;49.602;10.980;2023-08-20T04:23:02;5.07;;;3.38;;
10967;SDS011;5536;49.602;10.980;2023-08-20T04:25:29;8.27;;;3.30;;
10967;SDS011;5536;49.602;10.980;2023-08-20T04:27:56;6.30;;;3.42;;
10967;SDS011;5536;49.602;10.980;2023-08-20T04:30:23;4.80;;;3.45;;
10967;SDS011;5536;49.602;10.980;2023-08-20T04:32:50;5.40;;;3.38;;
10967;SDS011;5536;49.602;10.980;2023-08-20T04:35:17;3.08;;;2.70;;
10967;SDS011;5536;49.602;10.980;2023-08-20T04:37:46;4.32;;;3.10;;
10967;SDS011;5536;49.602;10.980;2023-08-20T04:40:13;3.60;;;3.28;;
10967;SDS011;5536;49.602;10.980;2023-08-20T04:42:40;2.75;;;2.55;;
10967;SDS011;5536;49.602;10.980;2023-08-20T04:45:07;5.80;;;3.58;;
10967;SDS011;5536;49.602;10.980;2023-08-20T04:47:36;3.28;;;2.97;;
10967;SDS011;5536;49.602;10.980;2023-08-20T04:50:03;3.65;;;2.95;;
10967;SDS011;5536;49.602;10.980;2023-08-20T04:52:32;3.97;;;3.45;;
10967;SDS011;5536;49.602;10.980;2023-08-20T04:55:00;5.57;;;3.38;;
10967;SDS011;5536;49.602;10.980;2023-08-20T04:57:28;5.55;;;3.05;;
10967;SDS011;5536;49.602;10.980;2023-08-20T04:59:55;3.50;;;3.20;;
10967;SDS011;5536;49.602;10.980;2023-08-20T05:02:22;3.20;;;2.92;;
10967;SDS011;5536;49.602;10.980;2023-08-20T05:04:49;3.28;;;2.97;;
10967;SDS011;5536;49.602;10.980;2023-08-20T05:07:16;4.60;;;3.72;;
10967;SDS011;5536;49.602;10.980;2023-08-20T05:09:43;3.53;;;3.03;;
10967;SDS011;5536;49.602;10.980;2023-08-20T05:12:11;3.22;;;2.92;;
10967;SDS011;5536;49.602;10.980;2023-08-20T05:14:38;5.93;;;3.63;;
10967;SDS011;5536;49.602;10.980;2023-08-20T05:17:05;2.80;;;2.60;;
10967;SDS011;5536;49.602;10.980;2023-08-20T05:19:32;2.85;;;2.65;;
10967;SDS011;5536;49.602;10.980;2023-08-20T05:21:59;2.80;;;2.60;;
10967;SDS011;5536;49.602;10.980;2023-08-20T05:24:26;3.10;;;2.90;;
10967;SDS011;5536;49.602;10.980;2023-08-20T05:27:03;2.83;;;2.45;;
10967;SDS011;5536;49.602;10.980;2023-08-20T05:29:33;3.28;;;2.97;;
10967;SDS011;5536;49.602;10.980;2023-08-20T05:32:00;7.47;;;3.10;;
10967;SDS011;5536;49.602;10.980;2023-08-20T05:34:28;3.28;;;2.92;;
10967;SDS011;5536;49.602;10.980;2023-08-20T05:36:55;4.03;;;3.15;;
10967;SDS011;5536;49.602;10.980;2023-08-20T05:39:22;3.08;;;2.75;;
10967;SDS011;5536;49.602;10.980;2023-08-20T05:41:51;5.82;;;2.95;;
10967;SDS011;5536;49.602;10.980;2023-08-20T05:44:18;2.40;;;2.30;;
10967;SDS011;5536;49.602;10.980;2023-08-20T05:46:46;4.30;;;3.40;;
10967;SDS011;5536;49.602;10.980;2023-08-20T05:49:13;5.18;;;3.20;;
10967;SDS011;5536;49.602;10.980;2023-08-20T05:51:42;4.30;;;3.00;;
10967;SDS011;5536;49.602;10.980;2023-08-20T05:54:09;4.22;;;3.13;;
10967;SDS011;5536;49.602;10.980;2023-08-20T05:56:36;3.10;;;2.90;;
10967;SDS011;5536;49.602;10.980;2023-08-20T05:59:04;4.03;;;3.15;;
10967;SDS011;5536;49.602;10.980;2023-08-20T06:01:31;4.25;;;2.67;;
10967;SDS011;5536;49.602;10.980;2023-08-20T06:03:59;4.70;;;3.75;;
10967;SDS011;5536;49.602;10.980;2023-08-20T06:06:27;5.05;;;3.47;;
10967;SDS011;5536;49.602;10.980;2023-08-20T06:08:55;4.65;;;3.55;;
10967;SDS011;5536;49.602;10.980;2023-08-20T06:11:22;3.47;;;3.15;;
10967;SDS011;5536;49.602;10.980;2023-08-20T06:13:49;3.95;;;3.65;;
10967;SDS011;5536;49.602;10.980;2023-08-20T06:16:16;3.38;;;3.08;;
10967;SDS011;5536;49.602;10.980;2023-08-20T06:18:43;4.18;;;3.10;;
10967;SDS011;5536;49.602;10.980;2023-08-20T06:21:12;3.53;;;3.22;;
10967;SDS011;5536;49.602;10.980;2023-08-20T06:23:39;5.20;;;3.35;;
10967;SDS011;5536;49.602;10.980;2023-08-20T06:26:06;4.38;;;3.40;;
10967;SDS011;5536;49.602;10.980;2023-08-20T06:28:33;3.72;;;3.33;;
10967;SDS011;5536;49.602;10.980;2023-08-20T06:31:00;4.55;;;3.83;;
10967;SDS011;5536;49.602;10.980;2023-08-20T06:33:27;3.45;;;3.13;;
10967;SDS011;5536;49.602;10.980;2023-08-20T06:35:54;3.53;;;3.22;;
10967;SDS011;5536;49.602;10.980;2023-08-20T06:38:23;5.00;;;3.33;;
10967;SDS011;5536;49.602;10.980;2023-08-20T06:40:50;4.97;;;3.40;;
10967;SDS011;5536;49.602;10.980;2023-08-20T06:43:18;3.38;;;2.97;;
10967;SDS011;5536;49.602;10.980;2023-08-20T06:45:45;4.63;;;3.83;;
10967;SDS011;5536;49.602;10.980;2023-08-20T06:48:12;4.10;;;3.80;;
10967;SDS011;5536;49.602;10.980;2023-08-20T06:50:41;10.85;;;3.63;;
10967;SDS011;5536;49.602;10.980;2023-08-20T06:53:08;4.30;;;3.40;;
10967;SDS011;5536;49.602;10.980;2023-08-20T06:55:36;5.38;;;4.22;;
10967;SDS011;5536;49.602;10.980;2023-08-20T06:58:03;3.15;;;2.85;;
10967;SDS011;5536;49.602;10.980;2023-08-20T07:00:31;3.47;;;3.20;;
10967;SDS011;5536;49.602;10.980;2023-08-20T07:02:58;4.68;;;3.53;;
10967;SDS011;5536;49.602;10.980;2023-08-20T07:05:25;5.38;;;4.32;;
10967;SDS011;5536;49.602;10.980;2023-08-20T07:07:52;5.38;;;3.80;;
10967;SDS011;5536;49.602;10.980;2023-08-20T07:10:19;4.05;;;3.75;;
10967;SDS011;5536;49.602;10.980;2023-08-20T07:12:48;9.30;;;4.10;;
10967;SDS011;5536;49.602;10.980;2023-08-20T07:15:15;4.03;;;3.65;;
10967;SDS011;5536;49.602;10.980;2023-08-20T07:17:42;3.58;;;3.30;;
10967;SDS011;5536;49.602;10.980;2023-08-20T07:20:09;4.85;;;3.85;;
10967;SDS011;5536;49.602;10.980;2023-08-20T07:22:36;4.93;;;4.30;;
10967;SDS011;5536;49.602;10.980;2023-08-20T07:25:03;7.68;;;3.78;;
10967;SDS011;5536;49.602;10.980;2023-08-20T07:27:30;4.93;;;3.75;;
10967;SDS011;5536;49.602;10.980;2023-08-20T07:29:59;3.58;;;3.38;;
10967;SDS011;5536;49.602;10.980;2023-08-20T07:32:26;4.10;;;3.80;;
10967;SDS011;5536;49.602;10.980;2023-08-20T07:34:53;5.03;;;4.10;;
10967;SDS011;5536;49.602;10.980;2023-08-20T07:37:20;4.28;;;3.78;;
10967;SDS011;5536;49.602;10.980;2023-08-20T07:39:47;4.53;;;4.13;;
10967;SDS011;5536;49.602;10.980;2023-08-20T07:42:14;4.68;;;4.28;;
10967;SDS011;5536;49.602;10.980;2023-08-20T07:44:43;4.93;;;4.10;;
10967;SDS011;5536;49.602;10.980;2023-08-20T07:47:11;4.50;;;4.10;;
10967;SDS011;5536;49.602;10.980;2023-08-20T07:49:38;6.72;;;4.03;;
10967;SDS011;5536;49.602;10.980;2023-08-20T07:52:05;4.70;;;4.30;;
10967;SDS011;5536;49.602;10.980;2023-08-20T07:54:32;8.32;;;4.43;;
10967;SDS011;5536;49.602;10.980;2023-08-20T07:56:59;6.65;;;4.55;;
10967;SDS011;5536;49.602;10.980;2023-08-20T07:59:26;7.82;;;4.93;;
10967;SDS011;5536;49.602;10.980;2023-08-20T08:01:53;6.45;;;5.00;;
10967;SDS011;5536;49.602;10.980;2023-08-20T08:04:21;4.38;;;3.97;;
10967;SDS011;5536;49.602;10.980;2023-08-20T08:06:49;8.73;;;4.18;;
10967;SDS011;5536;49.602;10.980;2023-08-20T08:09:19;4.70;;;4.32;;
10967;SDS011;5536;49.602;10.980;2023-08-20T08:11:47;4.47;;;4.10;;
10967;SDS011;5536;49.602;10.980;2023-08-20T08:14:14;4.45;;;4.07;;
10967;SDS011;5536;49.602;10.980;2023-08-20T08:16:41;3.88;;;3.58;;
10967;SDS011;5536;49.602;10.980;2023-08-20T08:19:09;4.10;;;3.72;;
10967;SDS011;5536;49.602;10.980;2023-08-20T08:21:38;5.85;;;3.83;;
10967;SDS011;5536;49.602;10.980;2023-08-20T08:24:05;4.47;;;3.67;;
10967;SDS011;5536;49.602;10.980;2023-08-20T08:26:33;4.15;;;3.75;;
10967;SDS011;5536;49.602;10.980;2023-08-20T08:29:01;5.30;;;3.83;;
10967;SDS011;5536;49.602;10.980;2023-08-20T08:31:28;4.78;;;4.25;;
10967;SDS011;5536;49.602;10.980;2023-08-20T08:33:55;4.53;;;4.13;;
10967;SDS011;5536;49.602;10.980;2023-08-20T08:36:22;3.72;;;3.42;;
10967;SDS011;5536;49.602;10.980;2023-08-20T08:38:51;3.88;;;3.58;;
10967;SDS011;5536;49.602;10.980;2023-08-20T08:41:20;4.57;;;3.13;;
10967;SDS011;5536;49.602;10.980;2023-08-20T08:43:49;4.47;;;3.50;;
10967;SDS011;5536;49.602;10.980;2023-08-20T08:46:16;5.53;;;3.22;;
10967;SDS011;5536;49.602;10.980;2023-08-20T08:48:45;3.03;;;2.78;;
10967;SDS011;5536;49.602;10.980;2023-08-20T08:51:15;3.10;;;2.90;;
10967;SDS011;5536;49.602;10.980;2023-08-20T08:53:43;7.82;;;3.50;;
10967;SDS011;5536;49.602;10.980;2023-08-20T08:56:11;3.35;;;3.08;;
10967;SDS011;5536;49.602;10.980;2023-08-20T08:58:39;3.45;;;3.17;;
10967;SDS011;5536;49.602;10.980;2023-08-20T09:01:06;4.78;;;3.90;;
10967;SDS011;5536;49.602;10.980;2023-08-20T09:03:33;3.55;;;3.35;;
10967;SDS011;5536;49.602;10.980;2023-08-20T09:06:01;3.85;;;3.45;;
10967;SDS011;5536;49.602;10.980;2023-08-20T09:08:29;3.47;;;3.17;;
10967;SDS011;5536;49.602;10.980;2023-08-20T09:10:57;5.22;;;4.72;;
10967;SDS011;5536;49.602;10.980;2023-08-20T09:13:33;3.88;;;3.55;;
10967;SDS011;5536;49.602;10.980;2023-08-20T09:16:03;4.28;;;3.88;;
10967;SDS011;5536;49.602;10.980;2023-08-20T09:18:31;4.13;;;3.80;;
10967;SDS011;5536;49.602;10.980;2023-08-20T09:20:58;4.15;;;3.60;;
10967;SDS011;5536;49.602;10.980;2023-08-20T09:23:28;2.40;;;2.30;;
10967;SDS011;5536;49.602;10.980;2023-08-20T09:25:56;5.57;;;4.82;;
10967;SDS011;5536;49.602;10.980;2023-08-20T09:28:23;3.05;;;2.78;;
10967;SDS011;5536;49.602;10.980;2023-08-20T09:30:59;3.90;;;3.60;;
10967;SDS011;5536;49.602;10.980;2023-08-20T09:33:27;3.92;;;3.53;;
10967;SDS011;5536;49.602;10.980;2023-08-20T09:35:55;6.25;;;4.05;;
10967;SDS011;5536;49.602;10.980;2023-08-20T09:38:23;4.20;;;3.53;;
10967;SDS011;5536;49.602;10.980;2023-08-20T09:40:51;4.50;;;4.10;;
10967;SDS011;5536;49.602;10.980;2023-08-20T09:43:22;3.95;;;3.60;;
10967;SDS011;5536;49.602;10.980;2023-08-20T09:45:53;4.53;;;3.20;;
10967;SDS011;5536;49.602;10.980;2023-08-20T09:48:23;4.43;;;3.60;;
10967;SDS011;5536;49.602;10.980;2023-08-20T09:50:55;4.47;;;4.03;;
10967;SDS011;5536;49.602;10.980;2023-08-20T09:53:25;6.25;;;3.80;;
10967;SDS011;5536;49.602;10.980;2023-08-20T09:55:54;3.00;;;2.80;;
10967;SDS011;5536;49.602;10.980;2023-08-20T09:58:28;5.78;;;5.22;;
10967;SDS011;5536;49.602;10.980;2023-08-20T10:00:56;3.78;;;3.47;;
10967;SDS011;5536;49.602;10.980;2023-08-20T10:03:25;4.47;;;3.33;;
10967;SDS011;5536;49.602;10.980;2023-08-20T10:05:52;8.32;;;3.10;;
10967;SDS011;5536;49.602;10.980;2023-08-20T10:08:20;16.35;;;3.05;;
10967;SDS011;5536;49.602;10.980;2023-08-20T10:10:47;2.97;;;2.78;;
10967;SDS011;5536;49.602;10.980;2023-08-20T10:13:14;6.88;;;2.42;;
10967;SDS011;5536;49.602;10.980;2023-08-20T10:15:43;3.35;;;2.17;;
10967;SDS011;5536;49.602;10.980;2023-08-20T10:18:11;6.45;;;2.50;;
10967;SDS011;5536;49.602;10.980;2023-08-20T10:20:40;3.95;;;3.55;;
10967;SDS011;5536;49.602;10.980;2023-08-20T10:23:07;3.13;;;2.85;;
10967;SDS011;5536;49.602;10.980;2023-08-20T10:25:40;5.00;;;3.00;;
10967;SDS011;5536;49.602;10.980;2023-08-20T10:28:13;4.65;;;2.42;;
10967;SDS011;5536;49.602;10.980;2023-08-20T10:31:03;2.92;;;2.72;;
10967;SDS011;5536;49.602;10.980;2023-08-20T10:33:33;2.63;;;2.42;;
10967;SDS011;5536;49.602;10.980;2023-08-20T10:36:09;4.93;;;2.67;;
10967;SDS011;5536;49.602;10.980;2023-08-20T10:38:39;3.17;;;2.53;;
10967;SDS011;5536;49.602;10.980;2023-08-20T10:41:06;10.18;;;1.98;;
10967;SDS011;5536;49.602;10.980;2023-08-20T10:43:34;2.17;;;1.98;;
10967;SDS011;5536;49.602;10.980;2023-08-20T10:46:06;2.05;;;1.95;;
10967;SDS011;5536;49.602;10.980;2023-08-20T10:48:35;3.00;;;2.70;;
10967;SDS011;5536;49.602;10.980;2023-08-20T10:51:10;3.55;;;2.20;;
10967;SDS011;5536;49.602;10.980;2023-08-20T10:53:38;2.88;;;2.53;;
10967;SDS011;5536;49.602;10.980;2023-08-20T10:56:10;2.50;;;2.30;;
10967;SDS011;5536;49.602;10.980;2023-08-20T10:58:40;2.53;;;2.33;;
10967;SDS011;5536;49.602;10.980;2023-08-20T11:01:15;2.53;;;2.35;;
10967;SDS011;5536;49.602;10.980;2023-08-20T11:03:44;7.47;;;2.13;;
10967;SDS011;5536;49.602;10.980;2023-08-20T11:06:13;11.25;;;3.13;;
10967;SDS011;5536;49.602;10.980;2023-08-20T11:08:41;3.80;;;2.47;;
10967;SDS011;5536;49.602;10.980;2023-08-20T11:11:08;2.35;;;2.20;;
10967;SDS011;5536;49.602;10.980;2023-08-20T11:13:36;2.63;;;2.42;;
10967;SDS011;5536;49.602;10.980;2023-08-20T11:16:03;4.40;;;2.95;;
10967;SDS011;5536;49.602;10.980;2023-08-20T11:18:31;3.70;;;2.42;;
10967;SDS011;5536;49.602;10.980;2023-08-20T11:20:59;5.05;;;2.38;;
10967;SDS011;5536;49.602;10.980;2023-08-20T11:23:28;2.80;;;2.40;;
10967;SDS011;5536;49.602;10.980;2023-08-20T11:25:56;2.55;;;2.35;;
10967;SDS011;5536;49.602;10.980;2023-08-20T11:28:24;6.65;;;3.00;;
10967;SDS011;5536;49.602;10.980;2023-08-20T11:30:52;2.88;;;2.67;;
10967;SDS011;5536;49.602;10.980;2023-08-20T11:33:20;3.45;;;2.63;;
10967;SDS011;5536;49.602;10.980;2023-08-20T11:35:47;2.30;;;2.20;;
10967;SDS011;5536;49.602;10.980;2023-08-20T11:38:15;7.68;;;2.45;;
10967;SDS011;5536;49.602;10.980;2023-08-20T11:40:43;2.50;;;2.30;;
10967;SDS011;5536;49.602;10.980;2023-08-20T11:43:10;4.13;;;3.72;;
10967;SDS011;5536;49.602;10.980;2023-08-20T11:45:44;3.47;;;3.17;;
10967;SDS011;5536;49.602;10.980;2023-08-20T11:48:15;4.32;;;2.85;;
10967;SDS011;5536;49.602;10.980;2023-08-20T11:50:43;3.40;;;3.15;;
10967;SDS011;5536;49.602;10.980;2023-08-20T11:53:10;2.83;;;2.63;;
10967;SDS011;5536;49.602;10.980;2023-08-20T11:55:38;4.05;;;2.47;;
10967;SDS011;5536;49.602;10.980;2023-08-20T11:58:09;4.95;;;2.90;;
10967;SDS011;5536;49.602;10.980;2023-08-20T12:00:37;1.88;;;1.77;;
10967;SDS011;5536;49.602;10.980;2023-08-20T12:03:04;3.70;;;2.85;;
10967;SDS011;5536;49.602;10.980;2023-08-20T12:05:33;2.65;;;2.45;;
10967;SDS011;5536;49.602;10.980;2023-08-20T12:08:00;2.88;;;2.35;;
10967;SDS011;5536;49.602;10.980;2023-08-20T12:10:29;2.58;;;2.28;;
10967;SDS011;5536;49.602;10.980;2023-08-20T12:12:57;2.28;;;2.08;;
10967;SDS011;5536;49.602;10.980;2023-08-20T12:15:26;2.45;;;2.25;;
10967;SDS011;5536;49.602;10.980;2023-08-20T12:17:59;2.28;;;2.10;;
10967;SDS011;5536;49.602;10.980;2023-08-20T12:20:29;2.63;;;2.25;;
10967;SDS011;5536;49.602;10.980;2023-08-20T12:22:58;2.63;;;2.47;;
10967;SDS011;5536;49.602;10.980;2023-08-20T12:25:29;5.78;;;2.30;;
10967;SDS011;5536;49.602;10.980;2023-08-20T12:27:57;3.42;;;2.58;;
10967;SDS011;5536;49.602;10.980;2023-08-20T12:30:26;2.90;;;2.70;;
10967;SDS011;5536;49.602;10.980;2023-08-20T12:32:53;3.95;;;3.33;;
10967;SDS011;5536;49.602;10.980;2023-08-20T12:35:20;2.70;;;2.50;;
10967;SDS011;5536;49.602;10.980;2023-08-20T12:37:47;7.57;;;2.22;;
10967;SDS011;5536;49.602;10.980;2023-08-20T12:40:14;2.40;;;2.05;;
10967;SDS011;5536;49.602;10.980;2023-08-20T12:42:41;6.75;;;2.50;;
10967;SDS011;5536;49.602;10.980;2023-08-20T12:45:08;2.53;;;2.33;;
10967;SDS011;5536;49.602;10.980;2023-08-20T12:47:39;2.28;;;2.17;;
10967;SDS011;5536;49.602;10.980;2023-08-20T12:50:06;3.50;;;2.30;;
10967;SDS011;5536;49.602;10.980;2023-08-20T12:52:34;3.03;;;2.28;;
10967;SDS011;5536;49.602;10.980;2023-08-20T12:55:07;2.13;;;2.03;;
10967;SDS011;5536;49.602;10.980;2023-08-20T12:57:35;2.58;;;2.38;;
10967;SDS011;5536;49.602;10.980;2023-08-20T13:00:02;2.00;;;1.90;;
10967;SDS011;5536;49.602;10.980;2023-08-20T13:02:36;2.28;;;2.08;;
10967;SDS011;5536;49.602;10.980;2023-08-20T13:05:05;2.38;;;2.22;;
10967;SDS011;5536;49.602;10.980;2023-08-20T13:07:34;5.28;;;2.38;;
10967;SDS011;5536;49.602;10.980;2023-08-20T13:10:01;5.40;;;2.70;;
10967;SDS011;5536;49.602;10.980;2023-08-20T13:12:29;5.93;;;1.90;;
10967;SDS011;5536;49.602;10.980;2023-08-20T13:15:00;2.42;;;2.22;;
10967;SDS011;5536;49.602;10.980;2023-08-20T13:17:29;2.95;;;2.30;;
10967;SDS011;5536;49.602;10.980;2023-08-20T13:19:57;2.63;;;2.42;;
10967;SDS011;5536;49.602;10.980;2023-08-20T13:22:24;1.98;;;1.88;;
10967;SDS011;5536;49.602;10.980;2023-08-20T13:24:51;2.40;;;2.20;;
10967;SDS011;5536;49.602;10.980;2023-08-20T13:27:18;2.22;;;2.13;;
10967;SDS011;5536;49.602;10.980;2023-08-20T13:29:45;1.92;;;1.83;;
10967;SDS011;5536;49.602;10.980;2023-08-20T13:32:12;21.05;;;3.63;;
10967;SDS011;5536;49.602;10.980;2023-08-20T13:34:39;3.80;;;2.15;;
10967;SDS011;5536;49.602;10.980;2023-08-20T13:37:07;1.92;;;1.83;;
10967;SDS011;5536;49.602;10.980;2023-08-20T13:39:34;2.20;;;2.10;;
10967;SDS011;5536;49.602;10.980;2023-08-20T13:42:01;4.88;;;1.88;;
10967;SDS011;5536;49.602;10.980;2023-08-20T13:44:29;2.38;;;2.17;;
10967;SDS011;5536;49.602;10.980;2023-08-20T13:46:56;2.58;;;2.25;;
10967;SDS011;5536;49.602;10.980;2023-08-20T13:49:22;7.65;;;2.53;;
10967;SDS011;5536;49.602;10.980;2023-08-20T13:51:50;2.45;;;2.30;;
10967;SDS011;5536;49.602;10.980;2023-08-20T13:54:18;2.90;;;1.90;;
10967;SDS011;5536;49.602;10.980;2023-08-20T13:56:45;1.88;;;1.77;;
10967;SDS011;5536;49.602;10.980;2023-08-20T13:59:12;1.85;;;1.75;;
10967;SDS011;5536;49.602;10.980;2023-08-20T14:01:39;1.90;;;1.80;;
10967;SDS011;5536;49.602;10.980;2023-08-20T14:04:06;4.72;;;2.38;;
10967;SDS011;5536;49.602;10.980;2023-08-20T14:06:33;2.53;;;1.95;;
10967;SDS011;5536;49.602;10.980;2023-08-20T14:09:00;5.80;;;2.13;;
10967;SDS011;5536;49.602;10.980;2023-08-20T14:11:31;2.25;;;2.15;;
10967;SDS011;5536;49.602;10.980;2023-08-20T14:13:58;4.80;;;2.40;;
10967;SDS011;5536;49.602;10.980;2023-08-20T14:16:25;11.93;;;2.10;;
10967;SDS011;5536;49.602;10.980;2023-08-20T14:18:53;2.03;;;1.92;;
10967;SDS011;5536;49.602;10.980;2023-08-20T14:21:19;2.22;;;2.05;;
10967;SDS011;5536;49.602;10.980;2023-08-20T14:23:46;1.75;;;1.65;;
10967;SDS011;5536;49.602;10.980;2023-08-20T14:26:13;1.77;;;1.65;;
10967;SDS011;5536;49.602;10.980;2023-08-20T14:28:42;1.73;;;1.63;;
10967;SDS011;5536;49.602;10.980;2023-08-20T14:31:09;1.83;;;1.58;;
10967;SDS011;5536;49.602;10.980;2023-08-20T14:33:36;3.92;;;2.20;;
10967;SDS011;5536;49.602;10.980;2023-08-20T14:36:03;2.15;;;1.95;;
10967;SDS011;5536;49.602;10.980;2023-08-20T14:38:31;2.60;;;2.40;;
10967;SDS011;5536;49.602;10.980;2023-08-20T14:40:59;2.28;;;2.08;;
10967;SDS011;5536;49.602;10.980;2023-08-20T14:43:26;2.38;;;1.98;;
10967;SDS011;5536;49.602;10.980;2023-08-20T14:45:54;2.42;;;2.08;;
10967;SDS011;5536;49.602;10.980;2023-08-20T14:48:22;1.95;;;1.85;;
10967;SDS011;5536;49.602;10.980;2023-08-20T14:50:49;1.73;;;1.63;;
10967;SDS011;5536;49.602;10.980;2023-08-20T14:53:16;1.70;;;1.60;;